Terminal Aerodrome Forecast
Issued by NWS Green Bay, WI

Home | Current Version | Previous Version | Graphics & Text | Print | Product List | Glossary On
Versions: 1 2 3 4 5 6 7 8 9 10 11 12 13 14 15 16 17 18 19 20 21 22 23 24 25 26
000
FTUS43 KGRB 242345
TAFGRB
TAF
KGRB 242345Z 2500/2524 11011KT 3SM RA BR BKN015 OVC025
      TEMPO 2500/2502 1 1/2SM RA BR BKN008
     FM250200 11010KT 3SM RA BR BKN007 OVC012 WS015/16035KT
      TEMPO 2502/2504 1 1/2SM RA BR
     FM250600 16008KT 3SM -SHRA BR BKN005 OVC010 WS012/21040KT
     FM251200 16013KT 5SM BR VCSH BKN006 OVC010
      TEMPO 2514/2518 3SM SHRA BKN015
     FM252000 24017G28KT P6SM BKN025=

USA.gov is the U.S. government's official web portal to all federal, state and local government web resources and services.